Whale Cove, Canada
Current Conditions -  °F | °C
As of 10:00 PM on Wednesday 22 Oct 2014 (Local Time) from CYRT Reporting Station
Overcast Overcast  
Wind Chill: 17°   Ceiling: 400
Heat Index: 28°   Visibility: 8mi
Dew Point: 27°   Wind: 16mph
Humidity: 93%   Direction: 70°ENE
Pressure: 30"   Gusts: 22mph
Location:  62.17°N, 92.58°W
Report Text: CYRT 230300Z 07014G19KT 8SM OVC004 M02/M03 A3000 RMK ST8 SLP162
Loading
Personal Weather Stations






























Interactive Weather Map
Tropical Storm Tracking
New forecast layout! Learn more

10-Day Weather Forecast

Advertisements
Track Severe Weather on mobile